Time;durP1;ratioP1;P1;durP2;ratioP2;P2;SDS_P1;SDS_P2;PMS_P1;PMS_P2;Temp;Humidity;BMP_temperature;BMP_pressure;BME280_temperature;BME280_humidity;BME280_pressure;Samples;Min_cycle;Max_cycle;Signal;HPM_P1;HPM_P2
2023/06/05 00:01:52;;;;;;;1.95;1.75;;;;;;;15.50;84.52;99979.88;5055330;28;20526;-63
2023/06/05 00:04:23;;;;;;;2.08;1.17;;;;;;;15.47;84.42;99983.34;5054918;28;20056;-63
2023/06/05 00:06:52;;;;;;;0.60;0.60;;;;;;;15.45;84.29;99979.97;5054944;28;20052;-63
2023/06/05 00:09:22;;;;;;;1.40;0.93;;;;;;;15.56;84.61;99996.06;5054850;28;20053;-63
2023/06/05 00:11:52;;;;;;;0.85;0.85;;;;;;;15.41;84.46;99966.25;5055138;28;20149;-62
2023/06/05 00:14:21;;;;;;;0.70;0.70;;;;;;;15.54;84.39;99992.66;5054603;28;20127;-63
2023/06/05 00:16:51;;;;;;;0.83;0.83;;;;;;;15.45;85.23;99984.25;5054992;28;20041;-62
2023/06/05 00:19:20;;;;;;;1.25;0.88;;;;;;;15.53;84.98;99996.09;5055264;28;20045;-62
2023/06/05 00:21:50;;;;;;;0.83;0.83;;;;;;;15.37;84.69;99958.59;5054635;28;20041;-62
2023/06/05 00:24:19;;;;;;;0.93;0.90;;;;;;;15.54;85.10;99990.09;5054568;28;20052;-63
2023/06/05 00:26:49;;;;;;;1.97;1.13;;;;;;;15.56;85.16;99995.19;5054474;28;20053;-63
2023/06/05 00:29:18;;;;;;;0.88;0.85;;;;;;;15.50;85.11;99996.13;5054812;28;20438;-63
2023/06/05 00:31:48;;;;;;;1.43;1.27;;;;;;;15.53;85.56;99984.94;5054397;28;20037;-63
2023/06/05 00:34:17;;;;;;;1.58;1.48;;;;;;;15.50;85.20;99991.00;5053238;28;20102;-62
2023/06/05 00:36:50;;;;;;;0.80;0.80;;;;;;;15.30;85.05;99962.16;5054869;28;20164;-63
2023/06/05 00:39:20;;;;;;;0.52;0.52;;;;;;;15.45;85.30;99979.97;5054384;28;20041;-62
2023/06/05 00:41:50;;;;;;;0.47;0.47;;;;;;;15.48;85.71;99990.16;5054232;28;20049;-62
2023/06/05 00:44:20;;;;;;;0.55;0.55;;;;;;;15.47;85.36;99991.06;5054252;28;20052;-62
2023/06/05 00:46:50;;;;;;;2.13;1.45;;;;;;;15.41;85.38;99986.81;5052967;28;20068;-62
2023/06/05 00:49:19;;;;;;;0.85;0.68;;;;;;;15.25;85.87;99969.06;5054236;28;20052;-62
2023/06/05 00:51:48;;;;;;;1.58;1.48;;;;;;;15.30;85.70;99981.00;5054138;28;20090;-62
2023/06/05 00:54:18;;;;;;;1.17;1.08;;;;;;;15.19;85.80;99964.00;5052880;28;20060;-62
2023/06/05 00:56:47;;;;;;;0.90;0.80;;;;;;;15.27;85.61;99977.63;5053066;28;20045;-62
2023/06/05 00:59:19;;;;;;;1.23;1.08;;;;;;;15.26;85.71;99983.66;5053850;28;20048;-62
2023/06/05 01:01:48;;;;;;;1.42;1.25;;;;;;;15.06;86.21;99934.22;5054229;28;20495;-62
2023/06/05 01:04:17;;;;;;;1.25;1.15;;;;;;;15.32;85.83;99980.97;5053898;28;20057;-62
2023/06/05 01:06:47;;;;;;;1.45;1.33;;;;;;;15.26;85.97;99970.78;5053194;28;20568;-62
2023/06/05 01:09:16;;;;;;;1.20;1.08;;;;;;;15.30;86.22;99975.88;5053802;28;20152;-62
2023/06/05 01:11:53;;;;;;;1.23;1.13;;;;;;;15.31;86.07;99979.25;5052667;28;20051;-62
2023/06/05 01:14:27;;;;;;;0.80;0.80;;;;;;;15.32;86.14;99976.69;5054042;28;20285;-62
2023/06/05 01:17:00;;;;;;;0.98;0.95;;;;;;;15.32;86.23;99975.81;5053662;28;20049;-62
2023/06/05 01:19:31;;;;;;;2.97;1.33;;;;;;;15.32;86.05;99975.81;5069156;28;20045;-62
2023/06/05 01:22:00;;;;;;;5.32;1.08;;;;;;;15.21;86.29;99957.16;5052541;28;20516;-62
2023/06/05 01:24:32;;;;;;;0.65;0.65;;;;;;;15.30;86.13;99977.56;5052737;28;20049;-62
2023/06/05 01:27:09;;;;;;;1.15;1.05;;;;;;;15.25;86.23;99975.06;5053382;28;20041;-62
2023/06/05 01:29:48;;;;;;;1.25;1.15;;;;;;;15.17;86.03;99968.34;5053493;28;20049;-62
2023/06/05 01:32:24;;;;;;;0.87;0.70;;;;;;;15.12;86.19;99968.41;5053507;28;20051;-62
2023/06/05 01:34:54;;;;;;;2.80;1.40;;;;;;;14.97;86.17;99942.09;5053528;28;20044;-62
2023/06/05 01:37:25;;;;;;;;;;;;;;;15.13;86.44;99964.97;5054143;28;20049;-62
2023/06/05 01:39:58;;;;;;;1.88;1.05;;;;;;;15.15;86.00;99964.94;5053696;28;19927;-62
2023/06/05 01:42:28;;;;;;;0.80;0.80;;;;;;;14.97;85.90;99934.38;5053485;28;20055;-62
2023/06/05 01:44:57;;;;;;;8.70;1.17;;;;;;;15.12;86.09;99957.25;5053721;28;20045;-62
2023/06/05 01:47:27;;;;;;;1.85;1.30;;;;;;;15.12;86.39;99957.25;5053374;28;20131;-62
2023/06/05 01:49:56;;;;;;;1.58;1.08;;;;;;;15.13;86.28;99958.97;5052117;28;20132;-62
2023/06/05 01:52:25;;;;;;;1.05;0.98;;;;;;;14.93;86.55;99924.97;5053246;28;20057;-62
2023/06/05 01:54:59;;;;;;;0.93;0.87;;;;;;;15.06;86.08;99957.38;5053587;28;20073;-62
2023/06/05 01:57:29;;;;;;;0.98;0.70;;;;;;;15.05;86.08;99955.66;5052103;28;20060;-62
2023/06/05 01:59:59;;;;;;;;;;;;;;;15.07;86.46;99957.31;5052774;28;20171;-62
2023/06/05 02:02:28;;;;;;;5.03;1.48;;;;;;;14.99;86.54;99950.63;5052373;28;20019;-62
2023/06/05 02:04:59;;;;;;;2.00;1.20;;;;;;;14.99;86.50;99953.19;5053212;28;20133;-62
2023/06/05 02:07:28;;;;;;;0.68;0.68;;;;;;;14.99;86.37;99946.34;5053258;28;20123;-62
2023/06/05 02:10:04;;;;;;;1.85;1.55;;;;;;;14.96;85.98;99942.94;5053067;28;20072;-62
2023/06/05 02:12:34;;;;;;;0.68;0.55;;;;;;;14.93;85.92;99930.13;5055614;28;20064;-62
2023/06/05 02:15:04;;;;;;;0.60;0.60;;;;;;;14.91;85.87;99937.88;5056172;28;20056;-62
2023/06/05 02:17:36;;;;;;;1.17;1.08;;;;;;;14.72;85.89;99908.16;5057035;28;20045;-62
2023/06/05 02:20:06;;;;;;;0.88;0.88;;;;;;;14.93;86.20;99935.25;5057368;28;20086;-62
2023/06/05 02:22:35;;;;;;;1.67;1.50;;;;;;;14.94;86.56;99936.97;5057296;28;20041;-62
2023/06/05 02:25:06;;;;;;;3.33;1.25;;;;;;;15.02;85.99;99940.28;5056864;28;20072;-62
2023/06/05 02:27:36;;;;;;;1.10;1.02;;;;;;;14.98;85.63;99938.63;5056927;28;20498;-62
2023/06/05 02:30:06;;;;;;;0.85;0.85;;;;;;;14.92;86.02;99955.00;5057106;28;20132;-62
2023/06/05 02:32:41;;;;;;;2.80;1.27;;;;;;;14.91;85.39;99962.72;5055531;28;20041;-63
2023/06/05 02:35:10;;;;;;;0.60;0.60;;;;;;;14.82;85.66;99962.84;5056758;28;20052;-62
2023/06/05 02:37:43;;;;;;;0.65;0.65;;;;;;;14.73;85.45;99946.66;5056638;28;20055;-62
2023/06/05 02:40:15;;;;;;;1.38;0.75;;;;;;;14.74;85.36;99955.22;5057003;28;20071;-62
2023/06/05 02:42:44;;;;;;;2.15;1.33;;;;;;;14.73;85.71;99956.94;5055668;28;20040;-62
2023/06/05 02:45:13;;;;;;;0.83;0.83;;;;;;;14.70;85.43;99961.28;5055335;28;20041;-62
2023/06/05 02:47:43;;;;;;;1.15;0.57;;;;;;;14.66;85.28;99957.91;5056760;28;20080;-62
2023/06/05 02:50:12;;;;;;;0.45;0.45;;;;;;;14.57;85.39;99952.03;5056609;28;20410;-62
2023/06/05 02:52:47;;;;;;;2.40;1.88;;;;;;;14.58;85.31;99953.75;5055407;28;20390;-62
2023/06/05 02:55:24;;;;;;;1.00;0.93;;;;;;;14.56;85.47;99958.91;5056314;28;20057;-62
2023/06/05 02:57:57;;;;;;;1.27;1.17;;;;;;;14.34;85.59;99939.47;5056223;28;20045;-62
2023/06/05 03:00:37;;;;;;;0.70;0.68;;;;;;;14.37;85.65;99939.41;5054989;28;20053;-62
2023/06/05 03:03:06;;;;;;;0.47;0.47;;;;;;;14.25;85.35;99924.16;5054984;28;20037;-62
2023/06/05 03:05:37;;;;;;;0.80;0.80;;;;;;;14.41;85.50;99956.50;5055809;28;20545;-62
2023/06/05 03:08:11;;;;;;;0.80;0.80;;;;;;;14.29;86.01;99920.69;5056910;28;20399;-62
2023/06/05 03:10:42;;;;;;;1.65;1.30;;;;;;;14.49;85.57;99954.69;5056330;28;20404;-62
2023/06/05 03:13:11;;;;;;;0.73;0.73;;;;;;;14.49;85.97;99952.13;5054799;28;20048;-62
2023/06/05 03:15:42;;;;;;;2.35;1.45;;;;;;;14.53;85.45;99953.78;5054760;28;20406;-62
2023/06/05 03:18:16;;;;;;;0.80;0.80;;;;;;;14.55;85.40;99949.50;5056155;28;20436;-62
2023/06/05 03:20:45;;;;;;;0.70;0.70;;;;;;;14.55;85.27;99949.50;5054645;28;20059;-62
2023/06/05 03:23:14;;;;;;;0.47;0.47;;;;;;;14.58;85.46;99952.03;5054490;28;20045;-62
2023/06/05 03:25:44;;;;;;;1.10;1.00;;;;;;;14.57;85.34;99958.03;5055815;28;20060;-62
2023/06/05 03:28:15;;;;;;;1.08;0.80;;;;;;;14.56;85.28;99951.19;5055420;28;20356;-63
2023/06/05 03:30:44;;;;;;;1.27;1.17;;;;;;;14.59;85.20;99951.13;5054754;28;20045;-62
2023/06/05 03:33:15;;;;;;;2.80;1.65;;;;;;;14.59;85.31;99945.13;5055475;28;20040;-62
2023/06/05 03:35:46;;;;;;;0.95;0.80;;;;;;;14.55;85.13;99944.34;5055519;28;20055;-62
2023/06/05 03:38:15;;;;;;;0.47;0.47;;;;;;;14.62;85.25;99952.81;5054367;28;20095;-62
2023/06/05 03:40:46;;;;;;;0.82;0.82;;;;;;;14.67;85.31;99957.03;5054232;28;20491;-63
2023/06/05 03:43:18;;;;;;;0.75;0.73;;;;;;;14.67;84.97;99957.03;5055344;28;20041;-62
2023/06/05 03:45:48;;;;;;;1.23;1.13;;;;;;;14.72;85.54;99956.97;5055333;28;20124;-62
2023/06/05 03:48:20;;;;;;;0.50;0.50;;;;;;;14.70;85.28;99964.72;5055631;28;20053;-62
2023/06/05 03:50:53;;;;;;;1.27;0.88;;;;;;;14.68;85.70;99958.72;5055248;28;20056;-62
2023/06/05 03:53:22;;;;;;;0.80;0.80;;;;;;;14.73;85.29;99968.97;5055188;28;20049;-63
2023/06/05 03:55:53;;;;;;;1.25;0.75;;;;;;;14.70;85.66;99954.44;5055442;28;20410;-62
2023/06/05 03:58:28;;;;;;;1.27;1.02;;;;;;;14.80;85.88;99964.59;5055171;28;20115;-63
2023/06/05 04:00:58;;;;;;;1.17;0.95;;;;;;;14.84;86.01;99963.66;5055391;28;20502;-63
2023/06/05 04:03:28;;;;;;;0.70;0.70;;;;;;;14.69;86.03;99937.31;5053716;28;20124;-63
2023/06/05 04:05:57;;;;;;;0.77;0.77;;;;;;;14.94;85.94;99971.25;5054079;28;20369;-63
2023/06/05 04:08:26;;;;;;;1.10;0.97;;;;;;;14.93;86.04;99971.25;5053718;28;20595;-63
2023/06/05 04:10:57;;;;;;;1.98;1.42;;;;;;;14.90;86.00;99973.88;5054880;28;20056;-63
2023/06/05 04:13:26;;;;;;;1.25;1.05;;;;;;;14.77;86.18;99947.50;5054813;28;20041;-63
2023/06/05 04:15:55;;;;;;;0.73;0.73;;;;;;;14.91;85.88;99970.41;5054028;28;20072;-63
2023/06/05 04:18:24;;;;;;;0.68;0.68;;;;;;;14.93;85.77;99976.38;5053760;28;20462;-63
2023/06/05 04:20:56;;;;;;;1.35;1.25;;;;;;;14.98;85.35;99978.03;5054993;28;20071;-63
2023/06/05 04:23:24;;;;;;;0.50;0.50;;;;;;;14.99;85.56;99968.59;5054581;28;20071;-63
2023/06/05 04:25:54;;;;;;;1.50;1.40;;;;;;;15.04;85.82;99979.69;5054879;28;20071;-63
2023/06/05 04:28:26;;;;;;;0.90;0.88;;;;;;;14.95;85.68;99954.09;5054309;28;20048;-63
2023/06/05 04:30:55;;;;;;;0.90;0.90;;;;;;;15.02;85.06;99974.53;5054785;28;20098;-63
2023/06/05 04:33:25;;;;;;;0.52;0.50;;;;;;;15.08;85.33;99976.19;5053981;28;20056;-63
2023/06/05 04:35:54;;;;;;;0.70;0.70;;;;;;;15.13;85.14;99969.25;5053441;28;20053;-63
2023/06/05 04:38:26;;;;;;;1.77;1.35;;;;;;;15.18;85.49;99970.03;5054659;28;20267;-63
2023/06/05 04:40:55;;;;;;;2.08;1.23;;;;;;;15.26;85.49;99970.78;5054590;28;20517;-63
2023/06/05 04:43:25;;;;;;;0.85;0.80;;;;;;;15.30;85.46;99972.44;5053085;28;20103;-63
2023/06/05 04:45:55;;;;;;;1.45;1.25;;;;;;;15.30;85.00;99975.00;5054144;28;20052;-63
2023/06/05 04:48:24;;;;;;;0.75;0.73;;;;;;;15.32;84.88;99970.69;5052986;28;20132;-63
2023/06/05 04:50:55;;;;;;;1.83;0.82;;;;;;;15.32;85.09;99976.69;5054680;28;20490;-63
2023/06/05 04:53:28;;;;;;;0.57;0.55;;;;;;;15.36;84.87;99970.59;5053954;28;20045;-63
2023/06/05 04:56:00;;;;;;;0.50;0.50;;;;;;;15.35;84.25;99965.50;5053117;28;20072;-63
2023/06/05 04:58:34;;;;;;;2.95;1.42;;;;;;;15.39;84.46;99968.00;5054149;28;20095;-63
2023/06/05 05:01:06;;;;;;;0.68;0.68;;;;;;;15.40;84.13;99976.56;5053971;28;20049;-63
2023/06/05 05:03:42;;;;;;;0.70;0.70;;;;;;;15.29;83.98;99970.72;5052801;28;20041;-63
2023/06/05 05:06:14;;;;;;;3.88;1.10;;;;;;;15.32;84.02;99971.53;5052981;28;20045;-63
2023/06/05 05:08:45;;;;;;;0.88;0.88;;;;;;;15.34;84.09;99971.50;5052679;28;20534;-63
2023/06/05 05:11:14;;;;;;;0.70;0.70;;;;;;;15.37;83.71;99963.75;5054072;28;20428;-63
2023/06/05 05:13:44;;;;;;;1.67;1.40;;;;;;;15.43;83.81;99971.34;5052616;28;20045;-63
2023/06/05 05:16:15;;;;;;;0.93;0.90;;;;;;;15.49;84.13;99973.88;5053931;28;20817;-63
2023/06/05 05:18:45;;;;;;;1.10;0.95;;;;;;;15.56;84.09;99978.06;5054284;28;20048;-63
2023/06/05 05:21:14;;;;;;;1.23;1.13;;;;;;;15.64;84.55;99981.34;5054211;28;20041;-63
2023/06/05 05:23:43;;;;;;;0.50;0.50;;;;;;;15.69;84.49;99971.81;5053645;28;20052;-63
2023/06/05 05:26:12;;;;;;;1.50;1.40;;;;;;;15.71;84.42;99975.25;5052345;28;20055;-64
2023/06/05 05:28:41;;;;;;;1.33;1.02;;;;;;;15.70;84.03;99972.66;5053302;28;20055;-63
2023/06/05 05:31:12;;;;;;;;;;;;;;;15.73;84.24;99967.47;5054207;28;20053;-63
2023/06/05 05:33:41;;;;;;;2.05;1.67;;;;;;;15.75;83.98;99976.88;5052475;28;20015;-63
2023/06/05 05:36:11;;;;;;;0.60;0.60;;;;;;;15.71;84.46;99964.09;5053519;28;20071;-63
2023/06/05 05:38:40;;;;;;;0.95;0.85;;;;;;;15.69;84.49;99958.94;5052334;28;20056;-63
2023/06/05 05:41:09;;;;;;;0.70;0.70;;;;;;;15.76;84.07;99968.28;5053454;28;20041;-63
2023/06/05 05:43:38;;;;;;;4.05;1.92;;;;;;;15.77;84.50;99967.41;5053394;28;20045;-63
2023/06/05 05:46:07;;;;;;;1.17;1.07;;;;;;;15.82;84.12;99973.31;5054544;28;20464;-63
2023/06/05 05:48:38;;;;;;;0.95;0.95;;;;;;;15.88;84.42;99962.91;5057374;28;20048;-64
2023/06/05 05:51:07;;;;;;;0.65;0.65;;;;;;;15.90;84.05;99973.19;5057815;28;20045;-63
2023/06/05 05:53:37;;;;;;;1.20;1.08;;;;;;;15.92;84.12;99964.56;5057610;28;20403;-63
2023/06/05 05:56:06;;;;;;;;;;;;;;;15.96;83.96;99970.50;5058322;28;20068;-63
2023/06/05 05:58:35;;;;;;;0.38;0.38;;;;;;;15.98;83.50;99974.75;5057610;28;20374;-63
2023/06/05 06:01:04;;;;;;;0.95;0.85;;;;;;;16.05;83.35;99976.31;5057319;28;20055;-63
2023/06/05 06:03:35;;;;;;;0.83;0.83;;;;;;;16.09;83.63;99983.13;5056278;28;20135;-63
2023/06/05 06:06:07;;;;;;;1.30;1.20;;;;;;;16.14;83.25;99987.34;5057321;28;20123;-63
2023/06/05 06:08:36;;;;;;;0.70;0.70;;;;;;;16.00;83.51;99954.94;5057460;28;20045;-63
2023/06/05 06:11:06;;;;;;;1.05;0.73;;;;;;;16.12;83.16;99976.22;5072244;28;20049;-64
2023/06/05 06:13:36;;;;;;;1.90;1.50;;;;;;;15.93;83.35;99955.94;5056811;28;20103;-64
2023/06/05 06:16:05;;;;;;;0.88;0.88;;;;;;;16.12;83.06;99983.94;5056920;28;20041;-63
2023/06/05 06:18:34;;;;;;;2.65;1.75;;;;;;;16.12;83.42;99976.22;5056822;28;20127;-64
2023/06/05 06:21:08;;;;;;;0.65;0.65;;;;;;;16.15;83.16;99981.31;5057204;28;20124;-63
2023/06/05 06:23:37;;;;;;;1.38;1.08;;;;;;;16.15;83.21;99991.63;5056813;28;20041;-63
2023/06/05 06:26:07;;;;;;;2.23;1.40;;;;;;;16.21;82.83;99991.50;5057157;28;20048;-63
2023/06/05 06:28:36;;;;;;;14.30;1.75;;;;;;;16.26;82.90;99990.53;5056691;28;20461;-64
2023/06/05 06:31:05;;;;;;;1.45;1.13;;;;;;;16.34;82.73;99985.25;5057046;28;20052;-63
2023/06/05 06:33:36;;;;;;;1.17;1.08;;;;;;;16.36;82.35;99991.22;5056784;28;20124;-63
2023/06/05 06:36:05;;;;;;;0.68;0.68;;;;;;;16.38;82.20;99986.88;5056651;28;20080;-64
2023/06/05 06:38:35;;;;;;;1.85;1.08;;;;;;;16.32;82.41;99958.66;5056349;28;20128;-64
2023/06/05 06:41:04;;;;;;;0.73;0.70;;;;;;;16.56;81.98;99994.28;5056868;28;20406;-64
2023/06/05 06:43:33;;;;;;;1.20;1.10;;;;;;;16.56;81.80;99994.28;5040951;28;20049;-64
2023/06/05 06:46:04;;;;;;;0.47;0.47;;;;;;;16.50;81.64;99984.06;5036514;28;20499;-63
2023/06/05 06:48:33;;;;;;;1.50;1.10;;;;;;;16.54;81.69;99988.31;5036754;28;20084;-63
2023/06/05 06:51:03;;;;;;;0.70;0.68;;;;;;;16.54;81.70;99970.25;5036440;28;20065;-64
2023/06/05 06:53:32;;;;;;;1.38;1.17;;;;;;;16.57;81.46;99970.22;5036482;28;20042;-64
2023/06/05 06:56:03;;;;;;;1.17;1.08;;;;;;;16.63;81.78;99975.22;5036699;28;20049;-64
2023/06/05 06:58:32;;;;;;;1.20;1.10;;;;;;;16.64;81.55;99976.94;5036293;28;20103;-64
2023/06/05 07:01:01;;;;;;;1.45;1.33;;;;;;;16.65;81.63;99973.50;5036160;28;20057;-64
2023/06/05 07:03:30;;;;;;;1.05;1.02;;;;;;;16.65;81.36;99979.47;5036654;28;20107;-64
2023/06/05 07:05:59;;;;;;;1.13;1.02;;;;;;;16.73;81.32;99987.06;5036309;28;20052;-64
2023/06/05 07:08:28;;;;;;;1.58;1.23;;;;;;;16.80;81.29;99983.47;5036119;28;20115;-64
2023/06/05 07:10:57;;;;;;;1.55;0.90;;;;;;;16.83;81.19;99977.41;5036341;28;20479;-64
2023/06/05 07:13:27;;;;;;;1.58;1.42;;;;;;;16.93;80.95;99995.22;5036014;28;20041;-64
2023/06/05 07:15:56;;;;;;;0.95;0.90;;;;;;;16.95;80.50;99988.31;5036266;28;20041;-64
2023/06/05 07:18:26;;;;;;;0.97;0.60;;;;;;;17.03;80.33;99996.72;5035988;28;20132;-64
2023/06/05 07:20:55;;;;;;;1.33;1.08;;;;;;;17.06;80.21;99990.66;5036145;28;20065;-64
2023/06/05 07:23:23;;;;;;;1.10;1.00;;;;;;;17.11;79.91;99996.53;5035877;28;20507;-64
2023/06/05 07:25:52;;;;;;;1.07;0.87;;;;;;;17.14;79.72;99981.00;5035828;28;20046;-64
2023/06/05 07:28:23;;;;;;;5.90;1.48;;;;;;;17.17;79.53;99989.53;5035211;28;20058;-64
2023/06/05 07:30:53;;;;;;;1.38;1.17;;;;;;;17.17;79.25;99978.34;5035806;28;20073;-63
2023/06/05 07:33:22;;;;;;;0.68;0.68;;;;;;;17.25;79.48;99991.94;5034639;28;20495;-63
2023/06/05 07:36:00;;;;;;;1.58;1.42;;;;;;;17.31;79.80;100002.09;5035945;28;20048;-64
2023/06/05 07:38:30;;;;;;;1.20;1.10;;;;;;;17.29;79.24;99989.25;5035571;28;20045;-64
2023/06/05 07:41:01;;;;;;;1.60;0.95;;;;;;;17.31;79.19;99996.94;5035812;28;20099;-64
2023/06/05 07:43:30;;;;;;;1.33;1.15;;;;;;;17.36;79.12;99993.38;5035466;28;20091;-64
2023/06/05 07:46:00;;;;;;;0.70;0.70;;;;;;;17.36;79.08;99990.81;5035390;28;20491;-64
2023/06/05 07:48:29;;;;;;;1.75;1.42;;;;;;;17.40;79.07;100002.75;5035714;28;20490;-64
2023/06/05 07:50:58;;;;;;;1.13;1.03;;;;;;;17.37;78.86;100005.38;5035481;28;20042;-64
2023/06/05 07:53:27;;;;;;;0.70;0.70;;;;;;;17.34;78.83;100005.47;5035627;28;20088;-64
2023/06/05 07:55:56;;;;;;;0.88;0.80;;;;;;;17.21;78.65;99974.81;5035141;28;20099;-64
2023/06/05 07:58:27;;;;;;;;;;;;;;;17.42;78.49;100011.28;5035701;28;20049;-63
2023/06/05 08:00:56;;;;;;;0.82;0.82;;;;;;;17.39;78.27;100001.06;5035203;28;19921;-64
2023/06/05 08:03:26;;;;;;;0.80;0.80;;;;;;;17.41;77.96;99996.72;5035359;28;20606;-63
2023/06/05 08:05:56;;;;;;;0.88;0.82;;;;;;;17.31;77.84;99987.47;5035340;28;20045;-63
2023/06/05 08:08:24;;;;;;;1.10;0.88;;;;;;;17.36;77.49;100001.13;5033742;28;20072;-63
2023/06/05 08:10:53;;;;;;;0.80;0.80;;;;;;;17.39;77.66;99995.91;5033685;28;20048;-63
2023/06/05 08:13:22;;;;;;;1.37;1.27;;;;;;;17.41;77.90;99994.13;5034482;28;20049;-63
2023/06/05 08:15:51;;;;;;;0.85;0.73;;;;;;;17.22;77.48;99956.75;5033508;28;20044;-63
2023/06/05 08:18:21;;;;;;;0.82;0.82;;;;;;;17.37;77.47;99979.59;5034414;28;20046;-64
2023/06/05 08:20:51;;;;;;;0.77;0.75;;;;;;;17.50;77.63;99990.47;5034452;28;20121;-64
2023/06/05 08:23:21;;;;;;;0.50;0.50;;;;;;;17.40;77.66;99982.09;5034319;28;20096;-63
2023/06/05 08:25:52;;;;;;;2.28;1.40;;;;;;;17.53;77.73;99997.34;5032618;28;20042;-63
2023/06/05 08:28:23;;;;;;;0.80;0.80;;;;;;;17.54;77.53;99996.47;5031370;28;20049;-64
2023/06/05 08:30:53;;;;;;;0.80;0.80;;;;;;;17.56;77.46;99987.78;5033771;28;20050;-63
2023/06/05 08:33:22;;;;;;;1.20;1.10;;;;;;;17.47;77.16;99981.97;5034383;28;20491;-63
2023/06/05 08:35:52;;;;;;;2.58;2.38;;;;;;;17.60;77.45;99988.56;5031486;28;20050;-64
2023/06/05 08:38:21;;;;;;;3.60;1.05;;;;;;;17.66;77.38;99988.41;5031985;28;20163;-64
2023/06/05 08:40:58;;;;;;;1.30;1.20;;;;;;;17.73;77.19;99995.13;5033776;28;20071;-63
2023/06/05 08:43:27;;;;;;;0.98;0.95;;;;;;;17.63;76.97;99953.19;5032773;28;20042;-65
2023/06/05 08:45:58;;;;;;;1.70;1.10;;;;;;;17.88;76.77;99987.84;5033406;28;20052;-63
2023/06/05 08:48:26;;;;;;;0.60;0.60;;;;;;;17.96;76.38;99982.47;5034101;28;20073;-63
2023/06/05 08:50:59;;;;;;;0.50;0.50;;;;;;;18.10;76.06;99990.72;5030092;28;20042;-64
2023/06/05 08:53:34;;;;;;;1.23;0.98;;;;;;;18.16;75.76;99985.41;5034140;28;20048;-63
2023/06/05 08:56:03;;;;;;;0.80;0.73;;;;;;;18.12;75.63;99983.75;5034038;28;20045;-64
2023/06/05 08:58:35;;;;;;;1.48;1.08;;;;;;;18.11;nan;99979.50;5034502;28;20057;-63
2023/06/05 09:01:04;;;;;;;0.52;0.52;;;;;;;18.22;76.21;99985.22;5034338;28;20415;-63
2023/06/05 09:03:34;;;;;;;3.40;1.63;;;;;;;18.35;75.92;99981.44;5034004;28;20053;-63
2023/06/05 09:06:05;;;;;;;0.50;0.50;;;;;;;18.48;75.67;99987.97;5034331;28;20122;-63
2023/06/05 09:08:35;;;;;;;0.95;0.85;;;;;;;18.39;75.39;99961.50;5034454;28;20491;-63
2023/06/05 09:11:21;;;;;;;1.88;1.70;;;;;;;18.56;75.36;99985.16;5033899;28;20049;-64
2023/06/05 09:13:51;;;;;;;0.55;0.55;;;;;;;18.63;75.26;99984.97;5034070;28;20111;-63
2023/06/05 09:16:24;;;;;;;1.75;1.42;;;;;;;18.56;75.13;99967.94;5033824;28;20045;-64
2023/06/05 09:18:54;;;;;;;1.23;0.88;;;;;;;18.61;75.40;99984.16;5033988;28;20048;-63
2023/06/05 09:21:28;;;;;;;1.20;1.10;;;;;;;18.61;75.15;99978.13;5034022;28;20095;-65
2023/06/05 09:24:13;;;;;;;1.23;1.08;;;;;;;18.66;74.83;99991.78;5033713;28;20049;-65
2023/06/05 09:26:55;;;;;;;15.48;1.40;;;;;;;18.63;74.75;99978.94;5033620;28;20557;-64
2023/06/05 09:29:26;;;;;;;1.02;0.98;;;;;;;18.47;74.26;99978.53;5033601;28;20053;-63
2023/06/05 09:31:57;;;;;;;1.25;1.15;;;;;;;18.42;73.87;99977.78;5033638;28;20075;-63
2023/06/05 09:34:29;;;;;;;0.75;0.75;;;;;;;18.30;74.09;99952.28;5033574;28;20084;-64
2023/06/05 09:37:00;;;;;;;1.83;1.23;;;;;;;18.42;73.76;99982.09;5032322;28;20514;-64
2023/06/05 09:39:31;;;;;;;1.75;0.80;;;;;;;18.45;73.49;99982.84;5033911;28;20049;-64
2023/06/05 09:42:00;;;;;;;0.85;0.80;;;;;;;18.48;73.34;99975.03;5033827;28;20037;-63
2023/06/05 09:44:31;;;;;;;1.88;0.95;;;;;;;18.50;73.23;99978.44;5033421;28;20069;-64
2023/06/05 09:47:01;;;;;;;2.03;1.88;;;;;;;18.53;73.29;99980.94;5033671;28;20062;-63
2023/06/05 09:49:31;;;;;;;1.73;1.10;;;;;;;18.49;73.27;99970.72;5032459;28;20377;-63
2023/06/05 09:52:03;;;;;;;0.85;0.80;;;;;;;18.60;73.13;99977.28;5032464;28;20073;-64
2023/06/05 09:54:32;;;;;;;1.45;1.33;;;;;;;18.65;73.26;99980.59;5033410;28;20046;-64
2023/06/05 09:57:03;;;;;;;2.85;1.40;;;;;;;18.60;73.14;99966.94;5033270;28;20038;-63
2023/06/05 09:59:34;;;;;;;2.72;1.23;;;;;;;18.68;72.90;99975.34;5034257;28;20041;-63
2023/06/05 10:02:05;;;;;;;1.75;1.23;;;;;;;18.77;72.96;99978.53;5033576;28;20538;-63
2023/06/05 10:04:41;;;;;;;2.05;1.85;;;;;;;18.77;72.79;99970.75;5033286;28;20132;-64
2023/06/05 10:07:13;;;;;;;0.90;0.77;;;;;;;18.73;72.69;99968.28;5033593;28;20049;-64
2023/06/05 10:09:44;;;;;;;0.50;0.50;;;;;;;18.72;72.81;99971.75;5033212;28;20045;-64
2023/06/05 10:12:13;;;;;;;0.73;0.73;;;;;;;18.78;72.48;99967.28;5033514;28;20495;-64
2023/06/05 10:14:44;;;;;;;1.08;1.02;;;;;;;18.83;72.51;99965.44;5032249;28;20053;-64
2023/06/05 10:17:20;;;;;;;2.15;0.88;;;;;;;18.88;72.36;99966.13;5033388;28;20128;-64
2023/06/05 10:19:49;;;;;;;0.70;0.70;;;;;;;18.89;72.57;99967.81;5033150;28;20061;-64
2023/06/05 10:22:20;;;;;;;2.70;0.83;;;;;;;18.92;73.02;99959.97;5033351;28;20061;-64
2023/06/05 10:24:53;;;;;;;1.10;0.93;;;;;;;18.96;72.79;99956.38;5031996;28;20048;-64
2023/06/05 10:27:45;;;;;;;0.98;0.95;;;;;;;18.97;72.77;99960.69;5033110;28;20522;-64
2023/06/05 10:30:42;;;;;;;1.58;1.02;;;;;;;18.74;72.81;99923.41;5033513;28;20053;-64
2023/06/05 10:33:29;;;;;;;0.90;0.88;;;;;;;18.91;72.63;99951.34;5036120;28;20387;-63
2023/06/05 10:36:09;;;;;;;1.30;1.20;;;;;;;18.85;72.92;99917.06;5036631;28;20081;-64
2023/06/05 10:38:43;;;;;;;1.50;1.25;;;;;;;19.07;73.06;99955.19;5037016;28;20115;-63
2023/06/05 10:41:12;;;;;;;1.30;1.20;;;;;;;19.14;72.99;99942.91;5036714;28;20143;-64
2023/06/05 10:43:48;;;;;;;0.80;0.80;;;;;;;19.23;72.70;99942.59;5036614;28;20045;-64
2023/06/05 10:46:32;;;;;;;1.38;0.95;;;;;;;19.26;72.44;99939.94;5035601;28;20530;-63
2023/06/05 10:49:09;;;;;;;0.50;0.50;;;;;;;19.35;72.28;99940.47;5036842;28;20045;-63
2023/06/05 10:51:42;;;;;;;1.52;1.15;;;;;;;19.47;71.44;99938.41;5036775;28;20426;-64
2023/06/05 10:54:16;;;;;;;3.45;1.20;;;;;;;19.54;70.98;99943.34;5036436;28;20469;-63
2023/06/05 10:57:02;;;;;;;0.80;0.73;;;;;;;19.66;70.31;99942.94;5036505;28;20033;-64
2023/06/05 10:59:33;;;;;;;0.52;0.52;;;;;;;19.74;69.82;99935.78;5036663;28;20049;-64
2023/06/05 11:02:23;;;;;;;0.77;0.77;;;;;;;19.88;69.24;99933.53;5036530;28;20553;-64
2023/06/05 11:05:06;;;;;;;0.95;0.77;;;;;;;20.15;68.66;99931.75;5036219;28;20487;-64
2023/06/05 11:07:35;;;;;;;1.27;1.05;;;;;;;20.30;67.59;99925.19;5035268;28;20047;-64
2023/06/05 11:10:20;;;;;;;0.70;0.70;;;;;;;20.32;67.01;99923.38;5036224;28;20041;-64
2023/06/05 11:13:01;;;;;;;0.68;0.68;;;;;;;20.41;67.08;99923.03;5034853;28;20056;-63
2023/06/05 11:15:46;;;;;;;0.65;0.65;;;;;;;20.54;67.24;99921.66;5036346;28;20045;-64
2023/06/05 11:18:34;;;;;;;6.78;1.83;;;;;;;20.59;66.58;99918.00;5018537;28;20069;-63
2023/06/05 11:21:03;;;;;;;0.70;0.70;;;;;;;20.61;66.24;99923.16;5036395;28;20041;-63
2023/06/05 11:23:32;;;;;;;1.05;0.88;;;;;;;20.58;66.20;99925.84;5035840;28;20496;-64
2023/06/05 11:26:27;;;;;;;5.47;2.15;;;;;;;20.58;66.90;99925.84;5036085;28;20087;-64
2023/06/05 11:28:57;;;;;;;3.17;1.15;;;;;;;20.58;66.75;99918.06;5029266;28;20115;-64
2023/06/05 11:31:32;;;;;;;1.00;1.00;;;;;;;20.61;66.40;99925.75;5035761;28;20051;-64
2023/06/05 11:34:01;;;;;;;0.73;0.73;;;;;;;20.59;66.02;99920.59;5035697;28;20087;-64
2023/06/05 11:36:30;;;;;;;0.40;0.40;;;;;;;20.63;66.18;99918.75;5035520;28;20128;-63
2023/06/05 11:39:01;;;;;;;0.80;0.80;;;;;;;20.64;66.24;99925.63;5036117;28;20037;-64
2023/06/05 11:41:30;;;;;;;0.57;0.57;;;;;;;20.66;66.34;99916.03;5036131;28;20042;-64
2023/06/05 11:44:00;;;;;;;1.30;1.15;;;;;;;20.61;65.65;99907.59;5034151;28;20052;-64
2023/06/05 11:46:41;;;;;;;1.27;1.05;;;;;;;20.77;65.51;99913.88;5035644;28;20033;-64
2023/06/05 11:49:26;;;;;;;1.95;1.27;;;;;;;20.83;65.84;99911.03;5035359;28;20049;-64
2023/06/05 11:51:55;;;;;;;0.85;0.85;;;;;;;20.99;65.81;99906.97;5035873;28;20055;-64
2023/06/05 11:54:29;;;;;;;0.73;0.73;;;;;;;21.08;65.48;99905.75;5035606;28;20140;-64